Time;durP1;ratioP1;P1;durP2;ratioP2;P2;SDS_P1;SDS_P2;PMS_P1;PMS_P2;Temp;Humidity;BMP_temperature;BMP_pressure;BME280_temperature;BME280_humidity;BME280_pressure;Samples;Min_cycle;Max_cycle;Signal;HPM_P1;HPM_P2
2021/10/01 00:01:35;;;;;;;13.70;10.37;;;;;;;13.68;88.85;95838.22;5075019;28;20436;-81
2021/10/01 00:04:01;;;;;;;12.70;9.77;;;;;;;13.30;88.91;95832.47;5074640;28;20449;-81
2021/10/01 00:06:29;;;;;;;10.53;8.83;;;;;;;13.22;89.77;95826.13;5074991;28;20449;-81
2021/10/01 00:08:55;;;;;;;16.13;10.80;;;;;;;13.24;90.59;95824.19;5039344;28;20476;-80
2021/10/01 00:11:24;;;;;;;13.63;9.27;;;;;;;13.38;90.16;95821.31;5074729;28;20440;-80
2021/10/01 00:13:51;;;;;;;15.97;10.33;;;;;;;13.47;89.90;95828.47;5074912;28;20446;-80
2021/10/01 00:16:18;;;;;;;13.43;8.70;;;;;;;13.54;89.31;95826.16;5074536;28;20443;-81
2021/10/01 00:18:45;;;;;;;17.07;9.80;;;;;;;13.58;89.08;95822.31;5074270;28;20482;-82
2021/10/01 00:21:12;;;;;;;10.63;9.27;;;;;;;13.62;89.44;95824.59;5074585;28;20836;-81
2021/10/01 00:23:39;;;;;;;10.77;8.47;;;;;;;13.67;88.74;95818.94;5074743;28;20451;-81
2021/10/01 00:26:07;;;;;;;12.03;9.67;;;;;;;13.73;88.36;95821.06;5074492;28;20463;-80
2021/10/01 00:28:35;;;;;;;11.67;9.43;;;;;;;13.75;88.34;95818.28;5074571;28;20473;-81
2021/10/01 00:31:02;;;;;;;14.33;9.70;;;;;;;13.80;88.70;95824.84;5074201;28;20483;-80
2021/10/01 00:33:29;;;;;;;11.40;10.17;;;;;;;13.84;88.48;95810.44;5074609;28;20439;-80
2021/10/01 00:35:59;;;;;;;12.50;9.17;;;;;;;13.86;88.35;95819.06;5074203;28;20445;-81
2021/10/01 00:38:26;;;;;;;15.73;8.30;;;;;;;13.90;88.30;95807.31;5074143;28;20484;-80
2021/10/01 00:40:53;;;;;;;12.23;8.40;;;;;;;13.94;88.52;95818.44;5073974;28;20969;-81
2021/10/01 00:43:20;;;;;;;14.60;7.50;;;;;;;13.97;88.10;95817.34;5074264;28;20436;-81
2021/10/01 00:45:49;;;;;;;14.83;9.37;;;;;;;13.94;88.25;95813.19;5055296;28;20843;-80
2021/10/01 00:48:15;;;;;;;15.00;9.17;;;;;;;13.93;88.25;95814.13;5073988;28;20453;-81
2021/10/01 00:50:42;;;;;;;11.50;9.70;;;;;;;13.85;88.00;95813.91;5073961;28;20457;-81
2021/10/01 00:53:09;;;;;;;10.57;9.40;;;;;;;13.83;88.34;95815.84;5074103;28;20452;-80
2021/10/01 00:55:36;;;;;;;10.90;9.63;;;;;;;13.86;89.01;95810.31;5073907;28;20447;-80
2021/10/01 00:58:03;;;;;;;18.63;9.70;;;;;;;13.86;88.90;95811.16;5073643;28;20473;-81
2021/10/01 01:00:30;;;;;;;15.63;10.70;;;;;;;13.89;88.92;95813.56;5073719;28;20958;-81
2021/10/01 01:03:02;;;;;;;13.40;10.40;;;;;;;13.81;89.44;95809.88;5073927;28;20545;-81
2021/10/01 01:05:49;;;;;;;20.00;11.40;;;;;;;13.74;88.54;95811.34;5073687;28;20444;-81
2021/10/01 01:08:23;;;;;;;20.00;11.73;;;;;;;13.79;88.36;95803.88;5073719;28;20451;-80
2021/10/01 01:10:55;;;;;;;20.07;13.27;;;;;;;13.82;87.78;95808.91;5072346;28;20459;-80
2021/10/01 01:13:31;;;;;;;17.20;13.33;;;;;;;13.81;87.85;95802.78;5073367;28;20448;-81
2021/10/01 01:16:02;;;;;;;14.80;12.03;;;;;;;13.84;88.14;95806.97;5073476;28;20451;-81
2021/10/01 01:18:32;;;;;;;14.83;11.50;;;;;;;13.89;88.01;95800.38;5073230;28;20481;-81
2021/10/01 01:21:01;;;;;;;15.17;12.47;;;;;;;13.78;87.74;95805.69;5073312;28;20845;-81
2021/10/01 01:23:53;;;;;;;12.27;10.57;;;;;;;13.51;88.54;95802.69;5073478;28;20469;-81
2021/10/01 01:26:40;;;;;;;15.37;11.17;;;;;;;13.47;88.75;95799.47;5073394;28;20442;-81
2021/10/01 01:29:23;;;;;;;11.47;10.20;;;;;;;13.58;89.24;95802.03;5073236;28;20530;-81
2021/10/01 01:31:58;;;;;;;14.77;10.30;;;;;;;13.48;89.36;95801.13;5073155;28;20530;-81
2021/10/01 01:34:35;;;;;;;10.90;9.37;;;;;;;13.61;88.92;95786.00;5072926;28;20444;-80
2021/10/01 01:37:06;;;;;;;10.83;9.70;;;;;;;13.65;88.53;95802.41;5072903;28;20449;-81
2021/10/01 01:39:35;;;;;;;13.17;9.10;;;;;;;13.67;89.00;95799.63;5072880;28;20951;-81
2021/10/01 01:42:05;;;;;;;16.13;9.60;;;;;;;13.72;88.52;95803.56;5072845;28;20442;-81
2021/10/01 01:44:34;;;;;;;14.47;9.50;;;;;;;13.76;88.83;95798.88;5072793;28;20929;-80
2021/10/01 01:47:02;;;;;;;10.60;9.67;;;;;;;13.73;88.70;95801.75;5072987;28;20437;-80
2021/10/01 01:49:32;;;;;;;12.70;9.93;;;;;;;13.78;88.61;95803.03;5072669;28;20446;-81
2021/10/01 01:52:00;;;;;;;12.43;9.57;;;;;;;13.78;88.51;95800.41;5073045;28;20452;-80
2021/10/01 01:54:28;;;;;;;12.70;9.53;;;;;;;13.77;88.32;95798.72;5072677;28;20449;-80
2021/10/01 01:56:56;;;;;;;12.03;10.27;;;;;;;13.60;88.87;95799.31;5072744;28;20451;-80
2021/10/01 01:59:26;;;;;;;12.33;9.33;;;;;;;13.66;88.98;95795.31;5072706;28;20443;-81
2021/10/01 02:01:54;;;;;;;9.83;8.87;;;;;;;13.71;89.35;95793.13;5053842;28;20931;-81
2021/10/01 02:04:24;;;;;;;10.83;9.30;;;;;;;13.75;89.02;95790.13;5072662;28;20461;-80
2021/10/01 02:06:53;;;;;;;12.63;9.63;;;;;;;13.78;88.99;95792.50;5072574;28;20446;-80
2021/10/01 02:09:22;;;;;;;13.80;9.40;;;;;;;13.84;89.27;95799.06;5072493;28;20455;-81
2021/10/01 02:11:50;;;;;;;10.57;9.50;;;;;;;13.86;89.07;95797.97;5072669;28;20934;-81
2021/10/01 02:14:22;;;;;;;11.60;9.40;;;;;;;13.83;88.87;95798.22;5072763;28;20455;-80
2021/10/01 02:16:50;;;;;;;10.33;9.00;;;;;;;13.86;89.23;95800.59;5053832;28;20519;-81
2021/10/01 02:19:20;;;;;;;16.47;10.07;;;;;;;13.90;89.37;95801.22;5072378;28;20485;-80
2021/10/01 02:21:49;;;;;;;14.83;11.27;;;;;;;13.88;89.15;95795.22;5072030;28;20450;-80
2021/10/01 02:24:18;;;;;;;11.20;9.70;;;;;;;13.89;88.98;95792.47;5072810;28;20449;-80
2021/10/01 02:26:48;;;;;;;11.23;10.13;;;;;;;13.93;89.12;95800.94;5072146;28;20442;-80
2021/10/01 02:29:19;;;;;;;11.43;9.33;;;;;;;13.90;88.77;95794.13;5053402;28;20523;-80
2021/10/01 02:31:54;;;;;;;13.50;9.80;;;;;;;13.92;88.89;95794.00;5072259;28;20479;-80
2021/10/01 02:34:34;;;;;;;9.93;8.40;;;;;;;13.87;89.14;95798.78;5072344;28;20443;-81
2021/10/01 02:37:01;;;;;;;10.47;9.47;;;;;;;13.88;89.76;95796.06;5072257;28;20457;-80
2021/10/01 02:39:30;;;;;;;12.40;10.10;;;;;;;13.85;89.70;95796.28;5071948;28;20565;-81
2021/10/01 02:41:57;;;;;;;11.47;10.37;;;;;;;13.83;89.20;95800.03;5072076;28;20453;-81
2021/10/01 02:44:24;;;;;;;10.30;9.30;;;;;;;13.82;89.08;95795.72;5072195;28;20452;-80
2021/10/01 02:46:51;;;;;;;14.67;9.47;;;;;;;13.84;89.57;95804.31;5072063;28;20448;-80
2021/10/01 02:49:18;;;;;;;11.40;10.20;;;;;;;13.85;89.20;95801.56;5072171;28;20805;-80
2021/10/01 02:51:50;;;;;;;11.07;7.73;;;;;;;13.82;88.74;95798.34;5072126;28;20453;-80
2021/10/01 02:54:24;;;;;;;13.60;9.80;;;;;;;13.79;88.95;95794.16;5071966;28;20804;-80
2021/10/01 02:56:58;;;;;;;10.93;8.47;;;;;;;13.83;88.99;95794.75;5072074;28;20441;-80
2021/10/01 02:59:29;;;;;;;13.47;8.73;;;;;;;13.84;89.04;95799.06;5071996;28;20485;-80
2021/10/01 03:01:58;;;;;;;14.63;9.33;;;;;;;13.80;89.12;95800.28;5072139;28;20527;-80
2021/10/01 03:04:27;;;;;;;10.83;9.80;;;;;;;13.79;89.30;95803.88;5071884;28;20458;-80
2021/10/01 03:06:55;;;;;;;11.33;10.23;;;;;;;13.79;89.05;95803.88;5036717;28;20448;-80
2021/10/01 03:09:24;;;;;;;12.03;10.37;;;;;;;13.66;89.71;95805.88;5036738;28;20451;-86
2021/10/01 03:11:54;;;;;;;12.37;9.33;;;;;;;13.48;90.65;95810.84;5038137;28;20458;-82
2021/10/01 03:14:21;;;;;;;15.70;10.20;;;;;;;13.34;91.49;95804.06;5069590;28;20468;-82
2021/10/01 03:16:50;;;;;;;20.93;13.87;;;;;;;13.28;91.86;95804.53;5071687;28;20865;-81
2021/10/01 03:19:22;;;;;;;18.53;13.30;;;;;;;13.33;91.91;95807.66;5070011;28;20879;-81
2021/10/01 03:21:50;;;;;;;17.80;10.20;;;;;;;13.22;92.31;95810.31;5071666;28;20442;-81
2021/10/01 03:24:20;;;;;;;14.97;10.67;;;;;;;13.10;92.92;95806.00;5071390;28;20473;-80
2021/10/01 03:26:48;;;;;;;12.87;10.47;;;;;;;13.17;92.91;95791.38;5031508;28;20910;-80
2021/10/01 03:29:16;;;;;;;11.13;9.03;;;;;;;13.25;92.89;95795.09;5051882;28;20530;-82
2021/10/01 03:31:45;;;;;;;14.70;10.10;;;;;;;13.23;93.54;95801.44;5046348;28;21023;-82
2021/10/01 03:34:12;;;;;;;13.77;10.67;;;;;;;13.31;92.81;95801.69;5072604;28;20459;-82
2021/10/01 03:36:40;;;;;;;11.80;9.30;;;;;;;13.26;92.45;95796.75;5075310;28;20932;-81
2021/10/01 03:39:07;;;;;;;12.60;9.07;;;;;;;13.24;92.84;95789.94;5073853;28;20493;-80
2021/10/01 03:41:35;;;;;;;10.80;9.67;;;;;;;13.30;92.24;95797.38;5075438;28;20924;-82
2021/10/01 03:44:02;;;;;;;9.93;8.30;;;;;;;13.39;92.24;95790.50;5075386;28;20448;-81
2021/10/01 03:46:30;;;;;;;10.87;9.47;;;;;;;13.46;91.97;95791.66;5075149;28;20450;-81
2021/10/01 03:48:57;;;;;;;11.00;9.33;;;;;;;13.50;92.00;95796.56;5039813;28;20460;-81
2021/10/01 03:51:24;;;;;;;11.17;9.17;;;;;;;13.56;91.99;95803.13;5075008;28;20451;-82
2021/10/01 03:53:53;;;;;;;10.53;9.37;;;;;;;13.59;91.83;95798.47;5075391;28;20451;-82
2021/10/01 03:56:20;;;;;;;11.03;8.93;;;;;;;13.60;91.65;95786.97;5074839;28;20442;-82
2021/10/01 03:58:48;;;;;;;10.73;9.73;;;;;;;13.66;91.65;95792.69;5075266;28;20854;-81
2021/10/01 04:01:15;;;;;;;12.40;9.63;;;;;;;13.63;91.07;95799.88;5075001;28;20442;-82
2021/10/01 04:03:44;;;;;;;17.27;10.20;;;;;;;13.62;91.60;95789.47;5074856;28;20438;-82
2021/10/01 04:06:11;;;;;;;13.57;9.30;;;;;;;13.66;91.46;95793.53;5056249;28;20504;-81
2021/10/01 04:08:39;;;;;;;17.90;10.20;;;;;;;13.69;91.20;95803.81;5075041;28;20447;-84
2021/10/01 04:11:06;;;;;;;10.63;8.77;;;;;;;13.71;91.04;95796.59;5056008;28;20814;-79
2021/10/01 04:13:33;;;;;;;12.63;8.90;;;;;;;13.74;90.43;95793.72;5074782;28;20446;-80
2021/10/01 04:16:00;;;;;;;12.07;10.80;;;;;;;13.75;90.68;95791.91;5074577;28;20441;-80
2021/10/01 04:18:27;;;;;;;14.20;9.20;;;;;;;13.75;90.53;95789.28;5069662;28;20582;-80
2021/10/01 04:20:55;;;;;;;10.60;9.33;;;;;;;13.71;90.98;95786.06;5074450;28;20455;-80
2021/10/01 04:23:22;;;;;;;10.00;8.53;;;;;;;13.78;90.75;95792.50;5071820;28;20447;-80
2021/10/01 04:25:49;;;;;;;11.63;10.00;;;;;;;13.75;90.86;95794.56;5074638;28;20905;-81
2021/10/01 04:28:17;;;;;;;21.93;10.43;;;;;;;13.70;90.64;95791.47;5072657;28;20805;-80
2021/10/01 04:30:46;;;;;;;13.90;9.40;;;;;;;13.64;91.52;95804.19;5074096;28;20477;-81
2021/10/01 04:33:20;;;;;;;13.90;9.90;;;;;;;13.59;90.99;95797.63;5074429;28;20456;-80
2021/10/01 04:35:47;;;;;;;13.33;10.20;;;;;;;13.59;92.13;95801.09;5074435;28;20532;-81
2021/10/01 04:38:16;;;;;;;12.00;9.47;;;;;;;13.60;92.01;95804.59;5073679;28;20494;-80
2021/10/01 04:40:42;;;;;;;10.60;9.67;;;;;;;13.61;92.10;95799.19;5074021;28;20930;-80
2021/10/01 04:43:10;;;;;;;12.30;10.73;;;;;;;13.64;92.59;95804.19;5070526;28;20445;-80
2021/10/01 04:45:37;;;;;;;15.10;9.67;;;;;;;13.68;91.77;95803.94;5071144;28;20457;-79
2021/10/01 04:48:05;;;;;;;12.40;10.43;;;;;;;13.70;91.77;95812.56;5072037;28;20455;-80
2021/10/01 04:50:33;;;;;;;11.13;9.97;;;;;;;13.75;91.25;95802.47;5071777;28;20470;-80
2021/10/01 04:53:00;;;;;;;12.40;9.73;;;;;;;13.72;90.99;95810.63;5074149;28;20473;-81
2021/10/01 04:55:29;;;;;;;12.27;9.70;;;;;;;13.64;92.03;95819.19;5073518;28;20450;-80
2021/10/01 04:57:56;;;;;;;12.13;10.07;;;;;;;13.56;92.17;95816.31;5071449;28;20451;-81
2021/10/01 05:00:23;;;;;;;15.50;10.60;;;;;;;13.63;92.30;95826.25;5073977;28;20462;-80
2021/10/01 05:02:50;;;;;;;13.50;10.70;;;;;;;13.63;92.35;95821.00;5070697;28;20446;-81
2021/10/01 05:05:17;;;;;;;19.00;10.80;;;;;;;13.69;91.98;95829.34;5073504;28;20530;-81
2021/10/01 05:07:44;;;;;;;18.30;11.50;;;;;;;13.70;92.02;95831.03;5070616;28;20437;-83
2021/10/01 05:10:12;;;;;;;17.00;11.47;;;;;;;13.57;92.61;95837.28;5073574;28;20443;-81
2021/10/01 05:12:40;;;;;;;10.70;9.57;;;;;;;13.66;91.89;95838.34;5073544;28;20438;-81
2021/10/01 05:15:09;;;;;;;15.13;11.52;;;;;;;13.72;93.18;95839.66;5073051;28;20434;-82
2021/10/01 05:17:37;;;;;;;15.20;11.70;;;;;;;13.72;91.89;95837.00;5073479;28;20206;-87
2021/10/01 05:20:07;;;;;;;16.37;10.60;;;;;;;13.70;91.81;95838.94;5073068;28;20487;-81
2021/10/01 05:22:34;;;;;;;13.20;10.90;;;;;;;13.68;91.53;95840.88;5073160;28;20446;-81
2021/10/01 05:25:01;;;;;;;11.50;9.77;;;;;;;13.67;91.98;95847.09;5073153;28;20441;-81
2021/10/01 05:27:29;;;;;;;12.37;10.33;;;;;;;13.67;92.07;95847.09;5073438;28;20446;-81
2021/10/01 05:29:57;;;;;;;12.57;10.83;;;;;;;13.63;92.21;95849.16;5072567;28;20444;-80
2021/10/01 05:32:24;;;;;;;13.20;10.20;;;;;;;13.62;92.46;95853.59;5038650;28;20461;-82
2021/10/01 05:34:52;;;;;;;15.33;9.53;;;;;;;13.57;92.23;95858.38;5073585;28;20446;-81
2021/10/01 05:37:19;;;;;;;14.77;10.20;;;;;;;13.62;92.23;95858.88;5073709;28;20457;-81
2021/10/01 05:39:47;;;;;;;17.67;10.40;;;;;;;13.70;92.31;95857.41;5073598;28;20484;-82
2021/10/01 05:42:13;;;;;;;13.30;10.40;;;;;;;13.64;92.63;95854.31;5073727;28;20496;-81
2021/10/01 05:44:40;;;;;;;18.13;10.90;;;;;;;13.66;92.61;95858.63;5073759;28;20455;-84
2021/10/01 05:47:09;;;;;;;12.27;10.67;;;;;;;13.76;93.69;95852.47;5054940;28;20434;-80
2021/10/01 05:49:39;;;;;;;14.63;10.70;;;;;;;13.83;94.46;95863.34;5073565;28;20501;-81
2021/10/01 05:52:25;;;;;;;10.70;9.23;;;;;;;13.89;93.25;95861.06;5073526;28;20454;-82
2021/10/01 05:54:53;;;;;;;10.23;9.13;;;;;;;13.94;92.03;95860.66;5073696;28;20531;-81
2021/10/01 05:57:21;;;;;;;12.70;10.20;;;;;;;13.96;91.50;95856.09;5072736;28;20436;-80
2021/10/01 05:59:48;;;;;;;12.60;9.10;;;;;;;13.93;91.72;95859.84;5073134;28;20491;-81
2021/10/01 06:02:18;;;;;;;12.50;10.60;;;;;;;13.98;91.82;95862.09;5072395;28;20450;-81
2021/10/01 06:04:46;;;;;;;13.07;9.90;;;;;;;14.02;91.45;95867.94;5072414;28;20446;-81
2021/10/01 06:07:14;;;;;;;19.50;10.73;;;;;;;14.03;91.00;95865.19;5072477;28;20471;-81
2021/10/01 06:09:42;;;;;;;13.87;10.40;;;;;;;14.07;90.99;95863.94;5072507;28;20451;-81
2021/10/01 06:12:11;;;;;;;14.57;9.57;;;;;;;14.13;90.86;95866.06;5053629;28;20627;-81
2021/10/01 06:14:39;;;;;;;12.33;10.50;;;;;;;14.19;91.11;95870.03;5072300;28;20531;-81
2021/10/01 06:17:06;;;;;;;14.40;11.00;;;;;;;14.23;90.90;95869.66;5072085;28;20459;-80
2021/10/01 06:19:37;;;;;;;18.37;11.00;;;;;;;14.27;90.09;95876.34;5072203;28;20507;-81
2021/10/01 06:22:06;;;;;;;14.90;11.77;;;;;;;14.26;90.31;95876.47;5072464;28;20449;-81
2021/10/01 06:24:33;;;;;;;23.10;13.10;;;;;;;14.25;89.95;95875.63;5072221;28;20887;-81
2021/10/01 06:27:00;;;;;;;11.87;10.00;;;;;;;14.21;90.30;95874.22;5072202;28;20444;-81
2021/10/01 06:29:27;;;;;;;18.03;11.73;;;;;;;14.21;89.87;95881.31;5072154;28;20944;-80
2021/10/01 06:31:54;;;;;;;12.33;10.80;;;;;;;14.22;89.52;95881.16;5072271;28;20492;-80
2021/10/01 06:34:22;;;;;;;14.00;11.07;;;;;;;14.27;89.66;95884.25;5072340;28;20440;-81
2021/10/01 06:36:50;;;;;;;18.93;10.90;;;;;;;14.38;90.32;95882.50;5072043;28;20944;-81
2021/10/01 06:39:17;;;;;;;13.73;9.90;;;;;;;14.46;89.89;95888.88;5071892;28;20849;-82
2021/10/01 06:41:44;;;;;;;15.00;10.97;;;;;;;14.51;88.67;95891.97;5071847;28;20524;-81
2021/10/01 06:44:15;;;;;;;12.80;9.40;;;;;;;14.59;88.43;95891.31;5071906;28;20457;-81
2021/10/01 06:46:45;;;;;;;12.63;11.10;;;;;;;14.66;88.68;95889.81;5071826;28;20451;-81
2021/10/01 06:49:23;;;;;;;11.97;10.10;;;;;;;14.67;87.04;95891.47;5037472;28;20437;-81
2021/10/01 07:22:34;;;;;;;11.00;8.00;;;;;;;16.00;73.77;95914.25;4974660;28;20462;-81
2021/10/01 08:20:10;;;;;;;6.97;6.23;;;;;;;15.54;61.30;95907.72;5011757;28;20513;-81
2021/10/01 08:22:37;;;;;;;8.07;7.20;;;;;;;15.42;57.71;95908.78;5012414;28;20443;-81
2021/10/01 08:25:04;;;;;;;13.13;7.20;;;;;;;15.47;58.20;95907.41;5012163;28;20452;-81
2021/10/01 08:27:31;;;;;;;10.60;7.03;;;;;;;15.52;56.53;95903.53;4995711;28;20518;-81
2021/10/01 08:30:00;;;;;;;12.03;7.00;;;;;;;15.40;55.87;95901.00;5011914;28;20439;-82
2021/10/01 08:32:27;;;;;;;16.13;6.73;;;;;;;15.33;56.00;95906.97;5012009;28;20455;-81
2021/10/01 08:34:53;;;;;;;8.43;6.23;;;;;;;15.37;55.61;95901.28;5012173;28;20491;-81
2021/10/01 08:37:20;;;;;;;14.53;5.90;;;;;;;15.37;54.80;95900.44;5012117;28;21172;-81
2021/10/01 08:39:47;;;;;;;7.50;5.80;;;;;;;15.38;54.76;95897.66;5011870;28;20498;-81
2021/10/01 08:42:14;;;;;;;11.70;7.10;;;;;;;15.45;53.51;95893.50;5011781;28;20442;-81
2021/10/01 08:44:43;;;;;;;9.50;6.20;;;;;;;15.49;53.11;95889.59;5012030;28;20454;-81
2021/10/01 08:47:12;;;;;;;12.43;6.60;;;;;;;15.63;54.21;95891.06;5011831;28;20450;-81
2021/10/01 08:49:41;;;;;;;7.40;5.30;;;;;;;15.75;53.31;95892.59;5011620;28;20455;-81
2021/10/01 08:52:09;;;;;;;9.50;6.77;;;;;;;15.78;53.06;95889.69;5011884;28;20451;-81
2021/10/01 08:54:37;;;;;;;11.20;6.40;;;;;;;15.77;52.53;95887.19;5039835;28;20456;-81
2021/10/01 08:57:04;;;;;;;7.73;6.40;;;;;;;15.62;52.46;95884.09;5054945;28;20452;-81
2021/10/01 08:59:31;;;;;;;11.97;7.47;;;;;;;15.64;52.11;95887.44;5073594;28;20486;-81
2021/10/01 09:01:58;;;;;;;8.80;6.90;;;;;;;15.61;53.10;95892.16;5073858;28;20441;-81
2021/10/01 09:04:26;;;;;;;9.10;6.10;;;;;;;15.56;54.79;95886.41;5038504;28;20441;-81
2021/10/01 09:06:57;;;;;;;7.90;6.37;;;;;;;15.74;53.18;95890.94;5073671;28;20696;-81
2021/10/01 09:09:35;;;;;;;15.93;7.90;;;;;;;15.67;54.27;95891.63;5073601;28;20840;-81
2021/10/01 09:12:03;;;;;;;9.07;7.40;;;;;;;15.61;53.10;95895.66;5073423;28;20446;-81
2021/10/01 09:14:30;;;;;;;11.30;6.10;;;;;;;15.80;52.40;95886.91;5054798;28;20776;-81
2021/10/01 09:16:58;;;;;;;13.03;6.30;;;;;;;16.26;52.97;95878.28;5073758;28;20443;-82
2021/10/01 09:19:38;;;;;;;7.43;6.30;;;;;;;16.82;52.09;95882.00;5073058;28;20525;-81
2021/10/01 09:22:05;;;;;;;13.40;6.17;;;;;;;17.12;51.97;95876.44;5073081;28;20450;-81
2021/10/01 09:24:32;;;;;;;9.00;6.20;;;;;;;17.48;51.05;95880.03;5054178;28;20445;-81
2021/10/01 09:27:00;;;;;;;7.00;6.27;;;;;;;17.66;49.20;95888.03;5073168;28;20445;-82
2021/10/01 09:29:31;;;;;;;11.27;6.77;;;;;;;17.63;51.07;95875.03;5072949;28;20548;-81
2021/10/01 09:32:00;;;;;;;8.63;6.63;;;;;;;17.80;49.77;95876.94;5071953;28;20486;-81
2021/10/01 09:34:39;;;;;;;7.07;6.43;;;;;;;17.51;48.00;95876.25;5073123;28;20454;-81
2021/10/01 09:37:09;;;;;;;7.50;5.13;;;;;;;17.48;48.14;95868.56;5072785;28;20937;-81
2021/10/01 09:39:38;;;;;;;7.57;5.37;;;;;;;17.10;49.88;95861.66;5053902;28;20500;-81
2021/10/01 09:42:15;;;;;;;7.73;5.40;;;;;;;16.37;51.10;95864.88;5072868;28;20448;-82
2021/10/01 09:44:50;;;;;;;6.30;5.73;;;;;;;16.36;51.88;95862.38;5054636;28;20449;-82
2021/10/01 09:47:23;;;;;;;10.13;6.87;;;;;;;15.90;52.21;95863.06;5073169;28;20466;-81
2021/10/01 09:49:57;;;;;;;9.80;7.20;;;;;;;15.99;54.64;95867.56;5039952;28;20446;-81
2021/10/01 09:52:24;;;;;;;7.70;5.83;;;;;;;15.93;53.04;95865.47;5054297;28;20482;-81
2021/10/01 09:55:05;;;;;;;10.00;7.20;;;;;;;15.67;53.86;95860.72;5073105;28;20440;-81
2021/10/01 09:57:32;;;;;;;9.77;6.17;;;;;;;15.45;53.82;95861.75;5072359;28;20451;-81
2021/10/01 09:59:59;;;;;;;7.40;6.10;;;;;;;15.44;53.98;95859.25;5072521;28;20488;-82
2021/10/01 10:02:26;;;;;;;8.17;6.43;;;;;;;15.29;54.99;95857.94;5072565;28;20468;-81
2021/10/01 10:04:55;;;;;;;9.80;7.00;;;;;;;15.50;56.25;95856.88;5072539;28;20448;-81
2021/10/01 10:07:25;;;;;;;9.93;7.33;;;;;;;15.48;54.58;95856.19;5072272;28;20445;-81
2021/10/01 10:09:54;;;;;;;10.67;7.43;;;;;;;15.53;54.48;95863.69;5072858;28;20915;-81
2021/10/01 10:12:34;;;;;;;9.00;6.27;;;;;;;15.43;54.69;95852.28;5072293;28;20927;-80
2021/10/01 10:15:02;;;;;;;11.10;6.20;;;;;;;15.45;54.27;95850.34;5072640;28;20448;-81
2021/10/01 10:17:30;;;;;;;6.33;5.73;;;;;;;15.54;53.68;95849.50;5072368;28;20448;-81
2021/10/01 10:19:59;;;;;;;13.70;6.93;;;;;;;15.57;55.10;95853.69;5071993;28;20492;-81
2021/10/01 10:22:29;;;;;;;8.90;5.80;;;;;;;15.48;55.32;95840.31;5072364;28;20818;-81
2021/10/01 10:24:56;;;;;;;13.10;6.93;;;;;;;15.60;57.14;95851.63;5053362;28;20479;-81
2021/10/01 10:27:25;;;;;;;14.50;7.20;;;;;;;15.72;55.77;95847.91;5072150;28;20447;-80
2021/10/01 10:29:53;;;;;;;9.93;7.37;;;;;;;15.84;54.60;95843.31;5071975;28;20450;-81
2021/10/01 10:32:23;;;;;;;8.50;6.67;;;;;;;15.84;54.00;95845.09;5072167;28;20447;-80
2021/10/01 10:34:52;;;;;;;8.00;5.70;;;;;;;15.91;53.15;95841.78;5072215;28;20441;-80
2021/10/01 10:37:20;;;;;;;7.30;6.17;;;;;;;15.92;54.25;95843.47;5071981;28;20443;-80
2021/10/01 10:39:54;;;;;;;6.87;6.20;;;;;;;16.07;54.87;95841.22;5072089;28;20482;-80
2021/10/01 10:42:33;;;;;;;7.30;6.30;;;;;;;16.14;54.82;95846.78;5072153;28;20880;-80
2021/10/01 10:45:09;;;;;;;17.53;6.47;;;;;;;16.03;54.57;95848.59;5072051;28;20444;-81
2021/10/01 10:47:51;;;;;;;12.90;7.23;;;;;;;16.28;54.01;95849.00;5071862;28;20441;-80
2021/10/01 10:50:39;;;;;;;9.13;7.03;;;;;;;16.16;53.31;95832.41;5071841;28;20496;-80
2021/10/01 10:53:31;;;;;;;10.53;6.70;;;;;;;16.29;54.98;95840.09;5071944;28;20453;-81
2021/10/01 10:56:08;;;;;;;7.13;6.37;;;;;;;16.12;52.50;95828.38;5072104;28;20445;-80
2021/10/01 10:58:51;;;;;;;9.10;7.63;;;;;;;16.18;54.96;95833.09;5071976;28;20436;-79
2021/10/01 11:01:34;;;;;;;13.50;7.00;;;;;;;16.00;54.59;95822.41;5071772;28;20995;-80
2021/10/01 11:04:38;;;;;;;8.83;6.97;;;;;;;15.84;53.28;95824.78;5071867;28;20448;-80
2021/10/01 11:07:06;;;;;;;8.10;7.00;;;;;;;15.70;54.83;95825.19;5072043;28;20933;-80
2021/10/01 11:09:35;;;;;;;15.73;6.87;;;;;;;15.56;54.50;95825.56;5071833;28;20945;-80
2021/10/01 11:12:28;;;;;;;10.33;7.07;;;;;;;15.85;55.82;95815.03;5072062;28;20452;-81
2021/10/01 11:15:14;;;;;;;7.40;6.70;;;;;;;15.84;54.81;95819.47;5071809;28;20447;-80
2021/10/01 11:17:42;;;;;;;8.27;6.60;;;;;;;15.81;54.33;95809.16;5071996;28;20442;-80
2021/10/01 11:20:09;;;;;;;9.30;6.50;;;;;;;16.00;54.74;95814.47;5071506;28;20482;-80
2021/10/01 11:22:38;;;;;;;8.00;6.27;;;;;;;15.99;55.89;95812.81;5071696;28;20803;-80
2021/10/01 11:25:13;;;;;;;10.23;6.30;;;;;;;16.08;55.86;95813.75;5072104;28;20444;-80
2021/10/01 11:27:53;;;;;;;8.77;7.90;;;;;;;16.08;54.77;95811.94;5071679;28;20550;-81
2021/10/01 11:30:20;;;;;;;7.30;6.60;;;;;;;15.93;54.15;95799.28;5071302;28;20479;-80
2021/10/01 11:32:47;;;;;;;7.00;6.30;;;;;;;15.95;54.88;95798.19;5071684;28;20443;-80
2021/10/01 11:35:16;;;;;;;13.20;7.50;;;;;;;16.04;55.12;95797.31;5071715;28;20809;-80
2021/10/01 11:37:45;;;;;;;8.10;7.30;;;;;;;16.21;54.23;95795.78;5071618;28;20445;-80
2021/10/01 11:40:21;;;;;;;35.13;8.37;;;;;;;16.45;54.42;95781.19;5071212;28;20488;-80
2021/10/01 11:42:52;;;;;;;10.37;6.20;;;;;;;16.39;54.01;95788.75;5071215;28;20454;-80
2021/10/01 11:45:20;;;;;;;10.27;7.30;;;;;;;16.36;53.75;95791.69;5071299;28;20442;-80
2021/10/01 11:47:54;;;;;;;11.53;6.83;;;;;;;16.34;54.18;95792.81;5071601;28;20807;-80
2021/10/01 11:50:29;;;;;;;13.43;7.10;;;;;;;16.21;55.05;95784.34;5071497;28;20454;-80
2021/10/01 11:52:58;;;;;;;7.83;6.23;;;;;;;16.43;54.21;95784.81;5036657;28;20803;-80
2021/10/01 11:55:27;;;;;;;7.97;6.97;;;;;;;16.59;53.88;95778.94;5073067;28;20473;-80
2021/10/01 11:57:55;;;;;;;9.90;6.83;;;;;;;16.75;52.35;95780.97;5039461;28;20448;-81
2021/10/01 12:00:23;;;;;;;8.37;7.17;;;;;;;16.87;52.66;95776.34;5039399;28;20852;-80
2021/10/01 12:02:51;;;;;;;13.80;7.27;;;;;;;16.98;51.95;95774.31;5074643;28;20453;-81
2021/10/01 12:05:27;;;;;;;10.90;8.13;;;;;;;17.01;50.72;95770.53;5055791;28;20435;-80
2021/10/01 12:07:56;;;;;;;13.03;7.60;;;;;;;17.06;52.27;95776.25;5055644;28;20429;-80
2021/10/01 12:10:26;;;;;;;9.93;7.63;;;;;;;16.71;51.33;95769.00;5074808;28;20498;-80
2021/10/01 12:13:07;;;;;;;18.90;8.23;;;;;;;16.90;52.57;95765.44;5074478;28;20933;-81
2021/10/01 12:15:36;;;;;;;7.67;6.97;;;;;;;17.03;51.99;95763.25;5074870;28;20444;-80
2021/10/01 12:18:03;;;;;;;11.53;7.90;;;;;;;16.99;50.76;95764.53;5074509;28;20451;-79
2021/10/01 12:20:30;;;;;;;10.43;6.93;;;;;;;17.10;50.78;95764.38;5074184;28;20485;-80
2021/10/01 12:22:57;;;;;;;12.90;7.30;;;;;;;17.27;50.32;95758.22;5039034;28;20449;-80
2021/10/01 12:25:26;;;;;;;7.83;7.03;;;;;;;17.41;50.88;95753.41;5074431;28;20450;-80
2021/10/01 12:27:54;;;;;;;11.77;7.70;;;;;;;17.53;50.98;95749.53;5074100;28;20460;-80
2021/10/01 12:30:22;;;;;;;8.63;6.97;;;;;;;17.64;50.45;95751.97;5074103;28;20483;-80
2021/10/01 12:32:49;;;;;;;8.37;6.90;;;;;;;17.20;49.87;95751.03;5074046;28;20452;-80
2021/10/01 12:35:16;;;;;;;7.37;6.53;;;;;;;17.38;51.13;95740.44;5074433;28;20495;-80
2021/10/01 12:37:43;;;;;;;10.93;7.00;;;;;;;17.45;51.29;95736.19;5074022;28;20806;-80
2021/10/01 12:40:13;;;;;;;9.07;7.43;;;;;;;17.18;49.93;95737.09;5074147;28;20854;-80
2021/10/01 12:42:41;;;;;;;11.47;7.30;;;;;;;16.95;50.89;95739.31;5073915;28;20799;-81
2021/10/01 12:45:12;;;;;;;7.23;6.50;;;;;;;16.97;51.10;95738.19;5073966;28;20959;-81
2021/10/01 12:47:43;;;;;;;10.97;7.50;;;;;;;16.75;52.21;95729.78;5073831;28;20453;-81
2021/10/01 12:50:13;;;;;;;13.90;7.73;;;;;;;16.94;53.47;95737.66;5074032;28;20437;-80
2021/10/01 12:52:42;;;;;;;11.00;7.93;;;;;;;16.76;50.44;95736.75;5074247;28;20455;-80
2021/10/01 12:55:11;;;;;;;11.00;6.57;;;;;;;16.73;52.09;95736.06;5074044;28;20457;-81
2021/10/01 12:57:39;;;;;;;10.00;6.70;;;;;;;16.67;51.85;95736.66;5038607;28;20445;-80
2021/10/01 13:00:16;;;;;;;8.50;7.13;;;;;;;16.81;52.65;95734.53;5073589;28;20451;-80
2021/10/01 13:02:46;;;;;;;11.00;7.87;;;;;;;16.94;51.80;95733.19;5039897;28;20500;-81